Time;durP1;ratioP1;P1;durP2;ratioP2;P2;SDS_P1;SDS_P2;PMS_P1;PMS_P2;Temp;Humidity;BMP_temperature;BMP_pressure;BME280_temperature;BME280_humidity;BME280_pressure;Samples;Min_cycle;Max_cycle;Signal;HPM_P1;HPM_P2
2024/01/15 00:00:39;;;;;;;11.83;5.10;;;1.30;93.90;;;;;;5056822;28;20197;-85
2024/01/15 00:03:05;;;;;;;10.63;5.33;;;1.10;94.20;;;;;;5075307;28;20201;-87
2024/01/15 00:05:30;;;;;;;20.63;5.80;;;1.10;94.40;;;;;;5075146;28;20642;-86
2024/01/15 00:07:56;;;;;;;19.43;5.50;;;1.10;94.60;;;;;;5056975;28;20181;-86
2024/01/15 00:10:21;;;;;;;9.63;4.70;;;1.20;94.70;;;;;;5056365;28;20279;-86
2024/01/15 00:12:47;;;;;;;22.90;5.83;;;1.20;94.70;;;;;;5056587;28;20664;-86
2024/01/15 00:15:12;;;;;;;13.20;5.47;;;1.20;94.70;;;;;;5074799;28;20174;-87
2024/01/15 00:17:38;;;;;;;8.87;5.30;;;1.20;94.60;;;;;;5057057;28;20183;-87
2024/01/15 00:20:05;;;;;;;34.03;5.73;;;1.20;94.60;;;;;;5056379;28;20198;-86
2024/01/15 00:22:30;;;;;;;21.83;5.27;;;1.20;94.50;;;;;;5074062;28;20183;-88
2024/01/15 00:24:56;;;;;;;17.73;6.20;;;1.20;94.50;;;;;;5056251;28;20235;-87
2024/01/15 00:27:22;;;;;;;12.90;5.00;;;1.30;94.30;;;;;;5074242;28;20220;-86
2024/01/15 00:29:48;;;;;;;21.47;5.43;;;1.30;94.30;;;;;;5055998;28;20268;-87
2024/01/15 00:32:13;;;;;;;14.67;4.90;;;1.20;94.30;;;;;;5073949;28;20175;-86
2024/01/15 00:34:39;;;;;;;13.90;4.90;;;1.20;94.30;;;;;;5074117;28;20202;-87
2024/01/15 00:37:06;;;;;;;13.60;4.80;;;1.30;94.50;;;;;;5074097;28;20180;-87
2024/01/15 00:39:32;;;;;;;12.93;5.07;;;1.20;94.50;;;;;;5056048;28;20263;-86
2024/01/15 00:41:58;;;;;;;11.73;4.83;;;1.10;94.50;;;;;;5074400;28;20570;-86
2024/01/15 00:44:23;;;;;;;7.80;4.03;;;1.00;94.70;;;;;;5055972;28;20175;-87
2024/01/15 00:46:49;;;;;;;8.63;4.10;;;1.10;94.80;;;;;;5056014;28;20178;-87
2024/01/15 00:49:18;;;;;;;7.53;4.03;;;1.10;94.70;;;;;;5074096;28;20179;-87
2024/01/15 00:51:43;;;;;;;8.17;4.40;;;1.20;94.70;;;;;;5074191;28;20198;-86
2024/01/15 00:54:09;;;;;;;26.43;6.00;;;1.20;94.60;;;;;;5055874;28;20178;-87
2024/01/15 00:56:34;;;;;;;21.63;7.07;;;1.20;94.50;;;;;;5073593;28;20175;-87
2024/01/15 00:59:00;;;;;;;15.70;4.87;;;1.30;94.30;;;;;;5057218;28;20286;-87
2024/01/15 01:01:26;;;;;;;10.80;4.60;;;1.30;94.20;;;;;;5074001;28;20253;-87
2024/01/15 01:03:51;;;;;;;18.00;5.70;;;1.40;94.00;;;;;;5055734;28;20189;-87
2024/01/15 01:06:17;;;;;;;13.33;5.63;;;1.40;93.90;;;;;;5073986;28;20178;-87
2024/01/15 01:08:42;;;;;;;18.57;6.40;;;1.50;93.80;;;;;;5073828;28;20186;-87
2024/01/15 01:11:12;;;;;;;14.07;11.00;;;1.50;93.60;;;;;;5055576;28;20214;-87
2024/01/15 01:13:37;;;;;;;22.50;11.40;;;1.60;93.40;;;;;;5074056;28;20171;-87
2024/01/15 01:16:03;;;;;;;15.97;12.53;;;1.60;93.40;;;;;;5073408;28;20191;-86
2024/01/15 01:18:28;;;;;;;13.67;10.77;;;1.60;93.50;;;;;;5055482;28;20210;-87
2024/01/15 01:20:54;;;;;;;12.90;11.57;;;1.60;93.50;;;;;;5055734;28;20199;-87
2024/01/15 01:23:20;;;;;;;16.93;11.67;;;1.70;93.60;;;;;;5073934;28;20163;-87
2024/01/15 01:25:45;;;;;;;12.70;10.37;;;1.80;93.50;;;;;;5055736;28;20178;-87
2024/01/15 01:28:11;;;;;;;11.27;10.30;;;1.80;93.50;;;;;;5073571;28;20177;-87
2024/01/15 01:30:36;;;;;;;18.87;11.77;;;1.80;93.40;;;;;;5073623;28;20198;-87
2024/01/15 01:33:02;;;;;;;17.37;11.80;;;1.90;93.30;;;;;;5073660;28;20175;-86
2024/01/15 01:35:27;;;;;;;16.93;12.23;;;1.90;93.20;;;;;;5073515;28;20180;-87
2024/01/15 01:37:53;;;;;;;13.00;11.73;;;1.90;93.20;;;;;;5073213;28;20741;-87
2024/01/15 01:40:18;;;;;;;19.87;11.80;;;1.90;93.20;;;;;;5055514;28;20231;-87
2024/01/15 01:42:44;;;;;;;23.03;12.13;;;1.80;93.30;;;;;;5055448;28;20221;-87
2024/01/15 01:45:11;;;;;;;21.17;11.57;;;2.00;93.30;;;;;;5055546;28;20181;-87
2024/01/15 01:47:37;;;;;;;12.77;11.70;;;1.90;93.20;;;;;;5055302;28;20224;-87
2024/01/15 01:50:03;;;;;;;14.23;11.80;;;2.00;93.20;;;;;;5055278;28;20698;-87
2024/01/15 01:52:29;;;;;;;11.97;10.67;;;2.10;93.10;;;;;;5073374;28;20171;-87
2024/01/15 01:54:55;;;;;;;13.07;11.47;;;2.10;93.10;;;;;;5073184;28;20222;-88
2024/01/15 01:57:20;;;;;;;19.50;12.15;;;2.00;93.20;;;;;;5055450;28;20174;-86
2024/01/15 01:59:46;;;;;;;11.70;9.50;;;2.00;93.20;;;;;;5072839;28;20222;-86
2024/01/15 02:02:12;;;;;;;16.80;11.57;;;2.00;93.10;;;;;;5055017;28;20171;-86
2024/01/15 02:04:38;;;;;;;12.93;9.73;;;2.00;93.10;;;;;;5055021;28;20541;-86
2024/01/15 02:07:04;;;;;;;19.10;11.73;;;1.90;93.40;;;;;;5057286;28;20183;-87
2024/01/15 02:09:29;;;;;;;11.27;5.20;;;1.90;93.60;;;;;;5058850;28;20201;-88
2024/01/15 02:11:55;;;;;;;13.40;5.53;;;1.90;93.70;;;;;;5059090;28;20173;-87
2024/01/15 02:14:21;;;;;;;10.23;4.53;;;1.90;93.80;;;;;;5077070;28;20175;-87
2024/01/15 02:16:47;;;;;;;11.47;4.97;;;1.90;93.80;;;;;;5076768;28;20306;-87
2024/01/15 02:19:18;;;;;;;8.30;4.63;;;1.90;93.80;;;;;;5076736;28;20252;-87
2024/01/15 02:21:44;;;;;;;10.23;5.27;;;1.80;94.00;;;;;;5076550;28;20197;-87
2024/01/15 02:24:10;;;;;;;14.70;5.07;;;1.80;94.10;;;;;;5058678;28;20177;-87
2024/01/15 02:26:38;;;;;;;7.63;4.80;;;1.90;94.00;;;;;;5058599;28;20192;-87
2024/01/15 02:29:04;;;;;;;8.77;4.73;;;1.80;93.90;;;;;;5058536;28;20265;-86
2024/01/15 02:31:30;;;;;;;16.10;5.80;;;1.80;93.90;;;;;;5076374;28;20187;-86
2024/01/15 02:33:55;;;;;;;16.37;4.90;;;1.80;94.00;;;;;;5076449;28;20188;-87
2024/01/15 02:36:21;;;;;;;20.37;5.20;;;1.80;94.00;;;;;;5076416;28;20544;-87
2024/01/15 02:38:46;;;;;;;22.10;4.83;;;1.80;94.20;;;;;;5076581;28;20198;-87
2024/01/15 02:41:14;;;;;;;18.00;5.23;;;1.80;94.20;;;;;;5058603;28;20198;-88
2024/01/15 02:43:40;;;;;;;22.10;6.07;;;1.90;94.10;;;;;;5058523;28;20524;-87
2024/01/15 02:46:06;;;;;;;22.10;6.10;;;1.90;94.10;;;;;;5076190;28;20259;-86
2024/01/15 02:48:32;;;;;;;43.27;8.60;;;1.90;94.10;;;;;;5058017;28;20262;-87
2024/01/15 02:50:58;;;;;;;26.27;7.70;;;2.10;94.00;;;;;;5076249;28;20542;-87
2024/01/15 02:53:23;;;;;;;22.30;6.83;;;2.20;93.50;;;;;;5058267;28;20182;-87
2024/01/15 02:55:49;;;;;;;25.37;9.10;;;2.30;93.10;;;;;;5076201;28;20179;-87
2024/01/15 02:58:15;;;;;;;30.17;8.00;;;2.30;92.90;;;;;;5075981;28;20203;-87
2024/01/15 03:00:40;;;;;;;21.10;8.27;;;2.30;92.80;;;;;;5076225;28;20199;-87
2024/01/15 03:03:06;;;;;;;23.27;7.03;;;2.10;92.80;;;;;;5076114;28;20198;-88
2024/01/15 03:05:31;;;;;;;22.70;8.87;;;2.30;92.60;;;;;;5057858;28;20175;-87
2024/01/15 03:07:57;;;;;;;27.23;7.93;;;2.20;92.40;;;;;;5057834;28;20175;-87
2024/01/15 03:10:22;;;;;;;33.53;8.57;;;2.10;92.60;;;;;;5057637;28;20702;-87
2024/01/15 03:12:48;;;;;;;27.10;8.47;;;2.00;92.70;;;;;;5057816;28;20726;-87
2024/01/15 03:15:13;;;;;;;32.03;9.17;;;2.10;93.00;;;;;;5075645;28;20176;-87
2024/01/15 03:17:39;;;;;;;21.50;8.20;;;2.10;92.90;;;;;;5056584;28;20179;-86
2024/01/15 03:20:05;;;;;;;17.40;8.10;;;2.30;92.00;;;;;;5057490;28;20198;-87
2024/01/15 03:22:30;;;;;;;19.17;9.30;;;2.20;91.80;;;;;;5075694;28;20180;-87
2024/01/15 03:24:56;;;;;;;14.90;9.33;;;2.20;91.20;;;;;;5075330;28;20614;-86
2024/01/15 03:27:21;;;;;;;19.40;9.30;;;2.20;90.80;;;;;;5075431;28;20179;-86
2024/01/15 03:29:47;;;;;;;23.37;10.07;;;2.20;90.40;;;;;;5075022;28;20202;-86
2024/01/15 03:32:12;;;;;;;23.57;21.63;;;2.20;90.50;;;;;;5057109;28;20187;-87
2024/01/15 03:34:38;;;;;;;30.13;24.73;;;2.20;90.40;;;;;;5057216;28;20190;-86
2024/01/15 03:37:03;;;;;;;23.70;21.37;;;2.20;90.10;;;;;;5075152;28;20171;-86
2024/01/15 03:39:29;;;;;;;26.03;24.20;;;2.30;89.40;;;;;;5074777;28;20195;-86
2024/01/15 03:41:55;;;;;;;29.27;26.63;;;2.30;89.00;;;;;;5075043;28;20171;-86
2024/01/15 03:44:21;;;;;;;27.73;25.17;;;2.40;88.10;;;;;;5074802;28;20647;-86
2024/01/15 03:46:46;;;;;;;29.80;26.73;;;2.30;88.00;;;;;;5074845;28;20217;-86
2024/01/15 03:49:11;;;;;;;30.07;26.70;;;2.30;88.40;;;;;;5057042;28;20175;-86
2024/01/15 03:51:37;;;;;;;29.93;26.73;;;2.30;88.50;;;;;;5074722;28;20194;-87
2024/01/15 03:54:03;;;;;;;34.17;24.90;;;2.30;88.70;;;;;;5074979;28;20179;-86
2024/01/15 03:56:28;;;;;;;31.10;25.37;;;2.30;89.00;;;;;;5056845;28;20651;-87
2024/01/15 03:58:54;;;;;;;31.03;25.50;;;2.30;89.00;;;;;;5074622;28;20222;-86
2024/01/15 04:01:19;;;;;;;35.23;25.70;;;2.40;89.10;;;;;;5074634;28;20203;-87
2024/01/15 04:03:45;;;;;;;37.87;24.97;;;2.50;89.10;;;;;;5074699;28;20174;-87
2024/01/15 04:06:10;;;;;;;35.57;24.43;;;2.40;89.10;;;;;;5074758;28;20172;-86
2024/01/15 04:08:36;;;;;;;38.47;24.90;;;2.50;89.30;;;;;;5074628;28;20174;-86
2024/01/15 04:11:01;;;;;;;31.33;25.03;;;2.50;89.20;;;;;;5056442;28;20589;-86
2024/01/15 04:13:27;;;;;;;33.57;25.17;;;2.60;89.00;;;;;;5056480;28;20172;-86
2024/01/15 04:15:53;;;;;;;37.23;28.17;;;2.60;88.80;;;;;;5074265;28;20172;-86
2024/01/15 04:18:18;;;;;;;38.67;29.73;;;2.60;88.90;;;;;;5056303;28;20213;-87
2024/01/15 04:20:44;;;;;;;38.47;26.87;;;2.70;88.70;;;;;;5056082;28;20249;-86
2024/01/15 04:23:10;;;;;;;44.17;28.87;;;2.90;88.10;;;;;;5056013;28;20250;-86
2024/01/15 04:25:35;;;;;;;35.73;29.87;;;2.90;87.90;;;;;;5074279;28;20231;-86
2024/01/15 04:28:01;;;;;;;29.33;27.00;;;3.00;87.50;;;;;;5073900;28;20180;-86
2024/01/15 04:30:26;;;;;;;29.97;27.70;;;3.00;87.60;;;;;;5055766;28;20245;-86
2024/01/15 04:32:52;;;;;;;44.03;31.43;;;3.00;87.30;;;;;;5055953;28;20320;-87
2024/01/15 04:35:17;;;;;;;44.10;33.70;;;3.00;86.90;;;;;;5056031;28;20172;-86
2024/01/15 04:37:43;;;;;;;38.83;28.77;;;3.00;86.90;;;;;;5073788;28;20206;-86
2024/01/15 04:40:09;;;;;;;36.53;29.90;;;3.00;87.30;;;;;;5073674;28;20270;-86
2024/01/15 04:42:35;;;;;;;27.20;15.67;;;2.90;87.20;;;;;;5073647;28;20618;-86
2024/01/15 04:45:00;;;;;;;33.23;16.60;;;3.00;87.00;;;;;;5055866;28;20264;-87
2024/01/15 04:47:26;;;;;;;47.43;31.10;;;2.90;87.40;;;;;;5055832;28;20204;-86
2024/01/15 04:49:51;;;;;;;72.33;33.20;;;3.00;87.30;;;;;;5055668;28;20199;-86
2024/01/15 04:52:17;;;;;;;41.50;31.75;;;2.90;87.20;;;;;;5055829;28;20262;-86
2024/01/15 04:54:42;;;;;;;;;;;3.00;86.80;;;;;;5073982;28;19911;-87
2024/01/15 04:57:08;;;;;;;;;;;3.00;86.60;;;;;;5073982;28;19911;-86
2024/01/15 04:59:33;;;;;;;;;;;2.90;86.50;;;;;;5055868;28;19908;-86
2024/01/15 05:01:59;;;;;;;;;;;2.90;86.70;;;;;;5074042;28;19940;-86
2024/01/15 05:04:24;;;;;;;;;;;2.90;87.00;;;;;;5074676;28;19962;-86
2024/01/15 05:06:50;;;;;;;;;;;2.80;87.50;;;;;;5055993;28;19904;-87
2024/01/15 05:09:16;;;;;;;44.90;30.70;;;2.80;87.70;;;;;;5073537;28;20340;-87
2024/01/15 05:11:41;;;;;;;35.27;15.73;;;2.80;88.00;;;;;;5055395;28;20290;-87
2024/01/15 05:14:07;;;;;;;35.73;14.53;;;2.70;88.20;;;;;;5055592;28;20186;-87
2024/01/15 05:16:32;;;;;;;35.67;15.40;;;2.60;88.60;;;;;;5055549;28;20184;-87
2024/01/15 05:18:58;;;;;;;33.77;14.43;;;2.50;89.00;;;;;;5073725;28;20230;-86
2024/01/15 05:21:23;;;;;;;39.27;14.33;;;2.50;89.40;;;;;;5073219;28;20191;-86
2024/01/15 05:23:49;;;;;;;36.97;13.73;;;2.50;89.50;;;;;;5055798;28;20176;-88
2024/01/15 05:26:14;;;;;;;34.77;13.63;;;2.50;89.50;;;;;;5073727;28;20516;-86
2024/01/15 05:28:43;;;;;;;40.37;13.87;;;2.80;89.20;;;;;;5073461;28;20562;-86
2024/01/15 05:31:09;;;;;;;34.43;13.57;;;2.80;88.80;;;;;;5073509;28;20578;-87
2024/01/15 05:33:35;;;;;;;33.80;13.20;;;2.90;88.70;;;;;;5073729;28;20167;-86
2024/01/15 05:36:00;;;;;;;41.80;14.37;;;2.80;88.90;;;;;;5073373;28;20286;-87
2024/01/15 05:38:26;;;;;;;33.27;14.83;;;2.70;89.00;;;;;;5073331;28;20633;-86
2024/01/15 05:40:51;;;;;;;29.93;14.63;;;2.60;89.40;;;;;;5055518;28;20192;-86
2024/01/15 05:43:17;;;;;;;27.97;14.17;;;2.80;89.10;;;;;;5077349;28;20199;-87
2024/01/15 05:45:44;;;;;;;19.50;14.90;;;2.80;88.40;;;;;;5077446;28;20172;-86
2024/01/15 05:48:10;;;;;;;32.17;15.43;;;2.80;87.60;;;;;;5059153;28;20225;-87
2024/01/15 05:50:35;;;;;;;20.90;15.27;;;2.80;87.10;;;;;;5077231;28;20603;-86
2024/01/15 05:53:02;;;;;;;19.90;16.50;;;2.80;86.20;;;;;;5077305;28;20203;-86
2024/01/15 05:55:28;;;;;;;21.60;16.30;;;2.80;85.50;;;;;;5058912;28;20175;-86
2024/01/15 05:57:53;;;;;;;20.67;17.53;;;2.80;84.90;;;;;;5077170;28;20558;-86
2024/01/15 06:00:19;;;;;;;18.77;16.90;;;2.70;84.70;;;;;;5058855;28;20574;-86
2024/01/15 06:02:44;;;;;;;23.77;17.53;;;2.80;83.90;;;;;;5076967;28;20546;-85
2024/01/15 06:05:10;;;;;;;20.43;17.73;;;2.70;84.60;;;;;;5077150;28;20599;-86
2024/01/15 06:07:36;;;;;;;19.03;16.97;;;2.70;84.30;;;;;;5076980;28;20178;-86
2024/01/15 06:10:02;;;;;;;22.77;17.60;;;2.60;84.60;;;;;;5058664;28;20249;-86
2024/01/15 06:12:28;;;;;;;23.13;17.37;;;2.60;85.00;;;;;;5076707;28;20217;-87
2024/01/15 06:14:53;;;;;;;21.17;16.60;;;2.70;85.10;;;;;;5076614;28;20250;-86
2024/01/15 06:17:19;;;;;;;23.60;15.23;;;2.60;85.70;;;;;;5076760;28;20184;-87
2024/01/15 06:19:44;;;;;;;21.77;15.07;;;2.60;85.60;;;;;;5058472;28;20632;-85
2024/01/15 06:22:10;;;;;;;20.77;15.30;;;2.60;85.80;;;;;;5076742;28;20635;-85
2024/01/15 06:24:35;;;;;;;20.03;15.23;;;2.70;85.60;;;;;;5058686;28;20175;-87
2024/01/15 06:27:01;;;;;;;29.67;15.63;;;2.50;86.20;;;;;;5076911;28;20172;-86
2024/01/15 06:29:28;;;;;;;24.43;15.73;;;2.50;86.60;;;;;;5058410;28;20621;-86
2024/01/15 06:31:53;;;;;;;22.90;15.53;;;2.40;87.00;;;;;;5076248;28;20183;-87
2024/01/15 06:34:20;;;;;;;26.83;15.60;;;2.30;87.50;;;;;;5076565;28;20210;-86
2024/01/15 06:36:45;;;;;;;22.13;14.90;;;2.30;87.60;;;;;;5058190;28;20270;-87
2024/01/15 06:39:11;;;;;;;15.33;13.67;;;2.30;87.90;;;;;;5076744;28;20661;-86
2024/01/15 06:41:43;;;;;;;22.83;14.13;;;2.40;87.90;;;;;;5076254;28;20184;-87
2024/01/15 06:44:12;;;;;;;19.63;13.23;;;2.30;87.70;;;;;;5076411;28;20242;-86
2024/01/15 06:46:44;;;;;;;21.40;17.00;;;2.30;88.00;;;;;;5076128;28;20167;-86
2024/01/15 06:49:10;;;;;;;22.73;15.20;;;2.30;87.90;;;;;;5058096;28;20179;-86
2024/01/15 06:51:36;;;;;;;23.33;14.33;;;2.30;87.90;;;;;;5075711;28;20206;-86
2024/01/15 06:54:02;;;;;;;15.43;13.87;;;2.30;87.90;;;;;;5074577;28;20183;-86
2024/01/15 06:56:27;;;;;;;17.03;13.83;;;2.30;88.10;;;;;;5076017;28;20260;-86
2024/01/15 06:58:53;;;;;;;23.87;13.30;;;2.40;87.80;;;;;;5075860;28;20255;-86
2024/01/15 07:01:18;;;;;;;18.20;16.27;;;2.40;86.90;;;;;;5057672;28;20195;-86
2024/01/15 07:03:44;;;;;;;35.53;32.47;;;2.50;85.80;;;;;;5075725;28;20194;-86
2024/01/15 07:06:10;;;;;;;34.93;31.53;;;2.50;85.10;;;;;;5057809;28;20235;-86
2024/01/15 07:08:36;;;;;;;32.20;29.70;;;2.50;85.40;;;;;;5075786;28;20671;-86
2024/01/15 07:11:04;;;;;;;35.60;32.47;;;2.50;85.30;;;;;;5075614;28;20214;-86
2024/01/15 07:13:30;;;;;;;33.57;30.90;;;2.40;85.80;;;;;;5057656;28;20199;-86
2024/01/15 07:15:56;;;;;;;32.67;30.50;;;2.30;86.30;;;;;;5057380;28;20280;-86
2024/01/15 07:18:21;;;;;;;34.43;31.67;;;2.30;86.60;;;;;;5075738;28;20203;-86
2024/01/15 07:20:47;;;;;;;35.67;32.90;;;2.30;86.50;;;;;;5075230;28;20244;-86
2024/01/15 07:23:12;;;;;;;33.17;30.33;;;2.30;86.10;;;;;;5075390;28;20608;-86
2024/01/15 07:25:38;;;;;;;32.83;30.47;;;2.30;86.10;;;;;;5075693;28;20178;-86
2024/01/15 07:28:04;;;;;;;34.07;31.20;;;2.30;86.40;;;;;;5075243;28;20199;-86
2024/01/15 07:30:29;;;;;;;29.97;27.80;;;2.40;86.00;;;;;;5075401;28;20274;-86
2024/01/15 07:32:55;;;;;;;32.87;29.00;;;2.40;86.20;;;;;;5075283;28;20612;-86
2024/01/15 07:35:21;;;;;;;31.90;28.93;;;2.30;86.40;;;;;;5075039;28;20183;-85
2024/01/15 07:37:46;;;;;;;29.40;26.57;;;2.30;86.90;;;;;;5057140;28;20180;-87
2024/01/15 07:40:12;;;;;;;28.67;25.43;;;2.30;87.30;;;;;;5075132;28;20208;-86
2024/01/15 07:42:42;;;;;;;30.23;27.33;;;2.30;87.40;;;;;;5057121;28;20176;-86
2024/01/15 07:45:08;;;;;;;29.17;26.40;;;2.30;87.70;;;;;;5056939;28;20211;-86
2024/01/15 07:47:33;;;;;;;28.97;26.07;;;2.20;88.00;;;;;;5075048;28;20179;-86
2024/01/15 07:49:59;;;;;;;31.27;24.87;;;2.30;88.00;;;;;;5056804;28;20191;-87
2024/01/15 07:52:24;;;;;;;29.20;25.87;;;2.30;88.00;;;;;;5074831;28;20172;-86
2024/01/15 07:54:50;;;;;;;25.80;23.13;;;2.20;88.20;;;;;;5056915;28;20206;-86
2024/01/15 07:57:16;;;;;;;30.17;24.90;;;2.10;88.60;;;;;;5074746;28;20175;-86
2024/01/15 07:59:41;;;;;;;26.97;21.23;;;2.10;88.60;;;;;;5074653;28;20278;-86
2024/01/15 08:02:07;;;;;;;23.47;21.20;;;2.10;89.00;;;;;;5074599;28;20202;-86
2024/01/15 08:04:32;;;;;;;21.97;19.83;;;2.00;89.30;;;;;;5056736;28;20278;-86
2024/01/15 08:06:58;;;;;;;15.47;10.50;;;2.10;89.50;;;;;;5056592;28;20259;-86
2024/01/15 08:09:23;;;;;;;15.83;10.53;;;2.00;89.50;;;;;;5074314;28;20588;-86
2024/01/15 08:11:49;;;;;;;14.67;10.10;;;2.00;89.60;;;;;;5074916;28;20230;-86
2024/01/15 08:14:15;;;;;;;21.13;11.20;;;2.00;89.70;;;;;;5056468;28;20175;-86
2024/01/15 08:16:40;;;;;;;15.03;10.83;;;1.90;89.80;;;;;;5074411;28;20254;-86
2024/01/15 08:19:06;;;;;;;18.77;10.47;;;2.00;89.80;;;;;;5074272;28;20206;-86
2024/01/15 08:21:32;;;;;;;13.37;10.10;;;2.00;89.80;;;;;;5056173;28;20740;-86
2024/01/15 08:24:02;;;;;;;16.10;9.30;;;2.10;89.70;;;;;;5073977;28;20724;-86
2024/01/15 08:26:30;;;;;;;19.27;9.67;;;2.00;90.00;;;;;;5074010;28;20714;-86
2024/01/15 08:28:56;;;;;;;20.20;8.73;;;1.90;90.30;;;;;;5056325;28;20183;-86
2024/01/15 08:31:21;;;;;;;17.83;8.80;;;1.90;90.40;;;;;;5056021;28;20196;-86
2024/01/15 08:33:47;;;;;;;14.80;9.30;;;1.90;90.20;;;;;;5074310;28;20190;-85
2024/01/15 08:36:13;;;;;;;17.07;9.30;;;1.90;90.10;;;;;;5074073;28;20518;-86
2024/01/15 08:38:38;;;;;;;16.30;8.53;;;1.90;90.20;;;;;;5073783;28;20195;-87
2024/01/15 08:41:04;;;;;;;21.47;9.47;;;1.90;90.30;;;;;;5073845;28;20183;-87
2024/01/15 08:43:33;;;;;;;14.67;9.87;;;1.80;90.40;;;;;;5073740;28;20236;-86
2024/01/15 08:45:59;;;;;;;9.53;8.10;;;1.90;90.40;;;;;;5073840;28;20173;-86
2024/01/15 08:48:27;;;;;;;13.13;8.93;;;1.80;90.30;;;;;;5056182;28;20178;-86
2024/01/15 08:50:53;;;;;;;9.37;8.17;;;1.80;90.50;;;;;;5073717;28;20190;-86
2024/01/15 08:53:18;;;;;;;13.40;9.87;;;1.90;90.60;;;;;;5073604;28;20182;-86
2024/01/15 08:55:44;;;;;;;12.47;8.80;;;1.90;90.50;;;;;;5073486;28;20183;-86
2024/01/15 08:58:10;;;;;;;21.07;9.50;;;1.90;90.60;;;;;;5073767;28;20171;-86
2024/01/15 09:00:35;;;;;;;16.87;8.27;;;1.90;90.70;;;;;;5073793;28;20214;-86
2024/01/15 09:03:02;;;;;;;17.77;8.53;;;2.10;90.70;;;;;;5073580;28;20217;-86
2024/01/15 09:05:28;;;;;;;17.53;8.90;;;2.20;90.40;;;;;;5073716;28;20160;-85
2024/01/15 09:07:54;;;;;;;20.40;9.67;;;2.20;90.40;;;;;;5055821;28;20175;-86
2024/01/15 09:10:20;;;;;;;14.67;8.40;;;2.20;90.40;;;;;;5073334;28;20698;-86
2024/01/15 09:12:46;;;;;;;15.40;8.27;;;2.20;90.50;;;;;;5073313;28;20171;-88
2024/01/15 09:15:11;;;;;;;25.80;9.43;;;2.30;90.50;;;;;;5073268;28;20171;-89
2024/01/15 09:17:37;;;;;;;17.77;9.57;;;2.20;90.60;;;;;;5073050;28;20174;-90
2024/01/15 09:20:05;;;;;;;18.97;9.37;;;2.30;90.80;;;;;;5073113;28;20617;-86
2024/01/15 09:22:31;;;;;;;18.03;9.47;;;2.40;90.80;;;;;;5073636;28;20172;-86
2024/01/15 09:24:56;;;;;;;20.77;16.00;;;2.40;90.70;;;;;;5055757;28;20242;-86
2024/01/15 09:27:22;;;;;;;17.47;15.67;;;2.40;90.70;;;;;;5073974;28;20186;-86
2024/01/15 09:29:47;;;;;;;20.57;16.10;;;2.50;90.50;;;;;;5073769;28;20198;-86
2024/01/15 09:32:13;;;;;;;23.73;15.40;;;2.40;90.70;;;;;;5073703;28;20176;-87
2024/01/15 09:34:38;;;;;;;19.17;15.07;;;2.40;90.80;;;;;;5056460;28;20179;-88
2024/01/15 09:37:05;;;;;;;17.70;15.27;;;2.40;91.00;;;;;;5074189;28;20175;-87
2024/01/15 09:39:31;;;;;;;19.27;15.23;;;2.40;91.00;;;;;;5073690;28;20204;-87
2024/01/15 09:41:57;;;;;;;25.73;18.30;;;2.40;91.10;;;;;;5056785;28;20190;-87
2024/01/15 09:44:23;;;;;;;22.60;20.43;;;2.30;91.20;;;;;;5055827;28;20172;-86
2024/01/15 09:46:50;;;;;;;29.40;20.27;;;1.90;91.10;;;;;;5073639;28;20170;-87
2024/01/15 09:49:16;;;;;;;21.53;17.53;;;1.80;91.60;;;;;;5073496;28;20163;-86
2024/01/15 09:51:43;;;;;;;22.20;17.53;;;1.80;92.00;;;;;;5073743;28;20567;-86
2024/01/15 09:54:08;;;;;;;19.57;15.73;;;1.80;92.10;;;;;;5055358;28;20232;-86
2024/01/15 09:56:35;;;;;;;24.37;18.30;;;1.80;92.20;;;;;;5073382;28;20175;-87
2024/01/15 09:59:01;;;;;;;20.80;18.53;;;1.70;92.30;;;;;;5073243;28;20191;-87
2024/01/15 10:01:27;;;;;;;22.50;20.80;;;1.70;92.00;;;;;;5073344;28;20210;-86
2024/01/15 10:03:54;;;;;;;20.60;19.10;;;1.70;91.40;;;;;;5073094;28;20197;-87
2024/01/15 10:06:21;;;;;;;20.30;18.83;;;1.60;91.10;;;;;;5055545;28;20618;-87
2024/01/15 10:08:49;;;;;;;21.27;19.40;;;1.60;91.00;;;;;;5055074;28;20262;-86
2024/01/15 10:11:14;;;;;;;23.50;21.53;;;1.50;91.00;;;;;;5072950;28;20214;-87
2024/01/15 10:13:40;;;;;;;20.83;19.00;;;1.50;91.20;;;;;;5073335;28;20175;-87
2024/01/15 10:16:06;;;;;;;21.80;20.17;;;1.40;91.20;;;;;;5055088;28;20183;-88
2024/01/15 10:18:32;;;;;;;19.47;17.80;;;1.40;91.40;;;;;;5054929;28;20195;-86
2024/01/15 10:20:58;;;;;;;21.27;19.33;;;1.30;91.80;;;;;;5054893;28;20192;-86
2024/01/15 10:23:24;;;;;;;17.77;16.67;;;1.30;92.20;;;;;;5073192;28;20237;-86
2024/01/15 10:25:51;;;;;;;17.53;16.07;;;1.20;92.60;;;;;;5073588;28;20164;-87
2024/01/15 10:28:19;;;;;;;17.93;16.20;;;1.30;92.90;;;;;;5058350;28;20233;-87
2024/01/15 10:30:45;;;;;;;12.77;7.73;;;1.20;92.90;;;;;;5059627;28;20199;-87
2024/01/15 10:33:11;;;;;;;17.03;7.80;;;1.20;93.10;;;;;;5076986;28;20179;-87
2024/01/15 10:35:37;;;;;;;18.63;7.13;;;1.20;93.40;;;;;;5059248;28;20180;-87
2024/01/15 10:38:03;;;;;;;11.40;7.23;;;1.20;93.40;;;;;;5076227;28;20182;-86
2024/01/15 10:40:29;;;;;;;8.83;6.23;;;1.20;93.50;;;;;;5058205;28;20191;-87
2024/01/15 10:42:55;;;;;;;11.10;6.70;;;1.20;93.60;;;;;;5058212;28;20236;-87
2024/01/15 10:45:20;;;;;;;6.80;6.10;;;1.20;93.70;;;;;;5075929;28;20167;-87
2024/01/15 10:47:46;;;;;;;13.27;6.67;;;1.20;93.90;;;;;;5075923;28;20619;-87
2024/01/15 10:50:12;;;;;;;12.60;6.57;;;1.20;93.90;;;;;;5076070;28;20187;-87
2024/01/15 10:52:40;;;;;;;9.67;6.80;;;1.20;94.00;;;;;;5057934;28;20198;-87
2024/01/15 10:55:08;;;;;;;17.37;6.70;;;1.20;94.10;;;;;;5075705;28;20225;-88
2024/01/15 10:57:34;;;;;;;11.37;6.17;;;1.20;94.10;;;;;;5075829;28;20186;-88
2024/01/15 11:00:02;;;;;;;8.37;6.20;;;1.20;94.10;;;;;;5075436;28;20203;-87
2024/01/15 11:02:28;;;;;;;14.90;6.20;;;1.20;94.10;;;;;;5075818;28;20187;-88
2024/01/15 11:04:54;;;;;;;9.20;6.90;;;1.10;94.10;;;;;;5057764;28;20649;-87
2024/01/15 11:07:23;;;;;;;13.20;7.40;;;1.10;94.10;;;;;;5075926;28;20168;-87
2024/01/15 11:09:50;;;;;;;9.63;6.33;;;1.00;94.10;;;;;;5057512;28;20313;-87
2024/01/15 11:12:17;;;;;;;11.20;6.43;;;1.00;94.10;;;;;;5075501;28;20585;-88
2024/01/15 11:14:47;;;;;;;10.37;6.30;;;0.90;94.20;;;;;;5075530;28;20170;-88
2024/01/15 11:17:14;;;;;;;11.90;5.73;;;0.90;94.20;;;;;;5075416;28;20182;-88
2024/01/15 11:19:46;;;;;;;9.83;5.50;;;0.90;94.30;;;;;;5075295;28;20203;-88
2024/01/15 11:22:30;;;;;;;6.33;5.70;;;0.90;94.30;;;;;;5057401;28;20180;-87
2024/01/15 11:24:56;;;;;;;6.70;5.80;;;0.90;94.40;;;;;;5057264;28;20181;-88
2024/01/15 11:27:47;;;;;;;7.20;5.57;;;0.90;94.40;;;;;;5057356;28;20179;-87
2024/01/15 11:30:14;;;;;;;7.80;5.70;;;0.90;94.40;;;;;;5058660;28;20194;-91
2024/01/15 11:32:43;;;;;;;10.90;5.77;;;0.90;94.50;;;;;;5064173;28;20228;-90
2024/01/15 11:35:10;;;;;;;5.60;5.30;;;0.90;94.50;;;;;;5070059;28;20189;-91
2024/01/15 11:37:51;;;;;;;5.80;5.30;;;0.90;94.60;;;;;;5067882;28;20182;-91
2024/01/15 11:40:39;;;;;;;7.80;5.00;;;0.90;94.60;;;;;;5059299;28;20260;-89
2024/01/15 11:43:06;;;;;;;5.83;5.40;;;0.90;94.70;;;;;;5075049;28;20179;-87
2024/01/15 11:45:33;;;;;;;11.83;10.67;;;0.90;94.70;;;;;;5074953;28;20247;-87
2024/01/15 11:48:16;;;;;;;12.10;11.33;;;0.90;94.70;;;;;;5075322;28;20275;-87
2024/01/15 11:50:49;;;;;;;12.23;11.33;;;0.90;94.70;;;;;;5057345;28;20198;-91
2024/01/15 11:53:21;;;;;;;12.73;11.83;;;0.90;94.80;;;;;;5057403;28;20188;-86
2024/01/15 11:55:48;;;;;;;12.50;11.47;;;0.80;94.80;;;;;;5075062;28;20221;-87
2024/01/15 11:58:14;;;;;;;5.57;5.10;;;0.80;94.80;;;;;;5074729;28;20163;-87
2024/01/15 12:00:45;;;;;;;5.53;5.13;;;0.90;94.90;;;;;;5057018;28;20278;-87
2024/01/15 12:03:11;;;;;;;10.23;9.53;;;0.90;94.90;;;;;;5074771;28;20262;-87
2024/01/15 12:05:41;;;;;;;12.00;11.00;;;0.90;94.90;;;;;;5074590;28;20250;-87
2024/01/15 12:08:10;;;;;;;10.80;9.90;;;0.90;95.00;;;;;;5056896;28;20171;-91
2024/01/15 12:10:38;;;;;;;10.47;9.63;;;0.90;95.00;;;;;;5056638;28;20268;-91
2024/01/15 12:13:15;;;;;;;10.43;9.80;;;1.00;95.10;;;;;;5056814;28;20179;-89
2024/01/15 12:15:42;;;;;;;11.70;10.80;;;1.00;95.10;;;;;;5057141;28;20159;-87
2024/01/15 12:18:09;;;;;;;11.27;10.53;;;1.00;95.10;;;;;;5056440;28;20666;-88
2024/01/15 12:20:35;;;;;;;11.87;10.73;;;0.90;95.10;;;;;;5074236;28;20191;-87
2024/01/15 12:23:03;;;;;;;9.83;7.20;;;0.90;95.10;;;;;;5057051;28;20167;-87
2024/01/15 12:25:30;;;;;;;7.00;6.30;;;0.90;95.20;;;;;;5074135;28;20160;-87
2024/01/15 12:27:56;;;;;;;6.03;5.60;;;0.90;95.10;;;;;;5057042;28;20194;-87
2024/01/15 12:30:22;;;;;;;5.83;5.43;;;0.90;95.20;;;;;;5074384;28;20203;-89
2024/01/15 12:32:48;;;;;;;5.97;5.40;;;0.90;95.20;;;;;;5056271;28;20183;-87
2024/01/15 12:35:15;;;;;;;9.43;8.37;;;0.90;95.20;;;;;;5074494;28;20177;-87
2024/01/15 12:37:41;;;;;;;7.40;6.70;;;1.00;95.20;;;;;;5056485;28;20320;-87